Cortes Canales — EA6849 — position and weather

sailwx.info

Track history (hours):
 
Tides and Currents Weather Stations Pressure Air Temp Water Temp Dewpoint Dewpoint Depression Visibility Wind Speed Wind Dir Waves Ship Positions

Cortes Canales

Last reported at 2017-Oct-12 20:16 UTC. Time now 2017-Oct-17 01:15 UTC.
Position N 36°52' W 008°00'.

Length 19 m.

Type: Fishing. MMSI: 224004660.

Date/timePositionNaut miles runAvg speedWind from/ knotsBaromVisibWave heightAir tempDewpointWater temp
2017-Oct-12 20:16N 36°52' W 008°00'1 3.0
2017-Oct-12 20:00N 36°52' W 008°01'2 3.0
2017-Oct-12 19:20N 36°53' W 008°04'2 3.1
2017-Oct-12 18:46N 36°53' W 008°06'1 3.4
2017-Oct-12 18:26N 36°53' W 008°07'2 5.4
2017-Oct-12 18:00N 36°55' W 008°05'1 1.6
2017-Oct-12 17:29N 36°55' W 008°05'1 3.1
2017-Oct-12 17:00N 36°56' W 008°06'5 3.1
2017-Oct-12 15:31N 36°59' W 008°11'0 3.1
2017-Oct-12 15:24N 36°59' W 008°11'1 2.9
2017-Oct-12 14:59N 36°59' W 008°13'1 3.0
2017-Oct-12 14:30N 36°59' W 008°15'0 0.1
2017-Oct-12 14:00N 36°59' W 008°15'2 3.2
2017-Oct-12 13:30N 36°59' W 008°13'1 3.0
2017-Oct-12 13:00N 36°59' W 008°11'2 3.1
2017-Oct-12 12:30N 36°58' W 008°09'2 3.1
2017-Oct-12 12:00N 36°57' W 008°08'0 0.2
2017-Oct-12 09:49N 36°58' W 008°08'2 2.9
2017-Oct-12 09:14N 36°58' W 008°09'1 2.9
2017-Oct-12 09:00N 36°59' W 008°10'2 2.9
2017-Oct-12 08:21N 36°59' W 008°13'1 2.8
2017-Oct-12 07:56N 36°59' W 008°14'1 3.0
2017-Oct-12 07:30N 36°59' W 008°12'0 0.8
2017-Oct-12 06:56N 36°58' W 008°12'1 1.3
2017-Oct-12 06:30N 36°59' W 008°12'1 2.8
2017-Oct-12 06:01N 36°59' W 008°11'2 3.1
2017-Oct-12 05:30N 36°58' W 008°09'2 3.1
2017-Oct-12 04:54N 36°57' W 008°07'1 3.1
2017-Oct-12 04:31N 36°56' W 008°06'  
2017-Oct-04 00:49N 36°53' W 008°07'1 2.9
2017-Oct-04 00:30N 36°52' W 008°07'13 1.9
2017-Oct-03 17:39N 36°54' W 008°23'2 9.2
2017-Oct-03 17:28N 36°54' W 008°25'4 9.4
2017-Oct-03 17:00N 36°55' W 008°30'1 1.8
2017-Oct-03 16:30N 36°55' W 008°31'1 2.8
2017-Oct-03 16:00N 36°54' W 008°32'1 3.0
2017-Oct-03 15:30N 36°53' W 008°34'2 3.0
2017-Oct-03 14:59N 36°53' W 008°36'3 3.0
2017-Oct-03 14:00N 36°54' W 008°40'2 3.1
2017-Oct-03 13:30N 36°54' W 008°42'2 3.2
2017-Oct-03 13:00N 36°54' W 008°44'4 8.0
2017-Oct-03 12:30N 36°58' W 008°43'0 0.8
2017-Oct-03 12:00N 36°58' W 008°43'1 2.7
2017-Oct-03 11:30N 36°57' W 008°44'2 2.9
2017-Oct-03 10:56N 36°57' W 008°46'2 2.9
2017-Oct-03 10:14N 36°56' W 008°49'1 1.7
2017-Oct-03 09:26N 36°57' W 008°48'2 3.0
2017-Oct-03 08:55N 36°58' W 008°46'2 3.2
2017-Oct-03 08:25N 36°58' W 008°44'0 0.3
2017-Oct-03 08:00N 36°58' W 008°44'1 2.8
2017-Oct-03 07:30N 36°58' W 008°46'1 3.0
2017-Oct-03 07:00N 36°57' W 008°47'3 1.7
2017-Oct-03 05:04N 36°57' W 008°43'0 5.1
2017-Oct-03 05:00N 36°57' W 008°43'0 0.8
2017-Oct-03 04:26N 36°58' W 008°43'1 1.9
2017-Oct-03 04:00N 36°57' W 008°43'1 3.0
2017-Oct-03 03:30N 36°57' W 008°45'1 2.9
2017-Oct-03 03:00N 36°57' W 008°47'2 2.8
2017-Oct-03 02:25N 36°57' W 008°49'2 2.8
2017-Oct-03 01:48N 36°55' W 008°51'4 2.7
2017-Oct-03 00:10N 36°57' W 008°45'1 3.1
2017-Oct-03 00:00N 36°57' W 008°45'2 3.1
2017-Oct-02 23:27N 36°58' W 008°43'1 3.0
2017-Oct-02 23:00N 36°58' W 008°44'1 1.7
2017-Oct-02 22:30N 36°58' W 008°45'2 2.9
2017-Oct-02 22:00N 36°57' W 008°47'1 2.9
2017-Oct-02 21:30N 36°56' W 008°48'1 3.0
2017-Oct-02 21:00N 36°55' W 008°49'2 3.0
2017-Oct-02 20:30N 36°55' W 008°51'  
Track history (hours):
 
Tides and Currents Weather Stations Pressure Air Temp Water Temp Dewpoint Dewpoint Depression Visibility Wind Speed Wind Dir Waves Ship Positions

Cortes Canales

Last reported at 2017-Oct-12 20:16 UTC. Time now 2017-Oct-17 01:15 UTC.
Position N 36°52' W 008°00'.

Length 19 m.

Type: Fishing. MMSI: 224004660.

Date/timePositionNaut miles runAvg speedWind from/ knotsBaromVisibWave heightAir tempDewpointWater temp
2017-Oct-12 20:16N 36°52' W 008°00'1 3.0
2017-Oct-12 20:00N 36°52' W 008°01'2 3.0
2017-Oct-12 19:20N 36°53' W 008°04'2 3.1
2017-Oct-12 18:46N 36°53' W 008°06'1 3.4
2017-Oct-12 18:26N 36°53' W 008°07'2 5.4
2017-Oct-12 18:00N 36°55' W 008°05'1 1.6
2017-Oct-12 17:29N 36°55' W 008°05'1 3.1
2017-Oct-12 17:00N 36°56' W 008°06'5 3.1
2017-Oct-12 15:31N 36°59' W 008°11'0 3.1
2017-Oct-12 15:24N 36°59' W 008°11'1 2.9
2017-Oct-12 14:59N 36°59' W 008°13'1 3.0
2017-Oct-12 14:30N 36°59' W 008°15'0 0.1
2017-Oct-12 14:00N 36°59' W 008°15'2 3.2
2017-Oct-12 13:30N 36°59' W 008°13'1 3.0
2017-Oct-12 13:00N 36°59' W 008°11'2 3.1
2017-Oct-12 12:30N 36°58' W 008°09'2 3.1
2017-Oct-12 12:00N 36°57' W 008°08'0 0.2
2017-Oct-12 09:49N 36°58' W 008°08'2 2.9
2017-Oct-12 09:14N 36°58' W 008°09'1 2.9
2017-Oct-12 09:00N 36°59' W 008°10'2 2.9
2017-Oct-12 08:21N 36°59' W 008°13'1 2.8
2017-Oct-12 07:56N 36°59' W 008°14'1 3.0
2017-Oct-12 07:30N 36°59' W 008°12'0 0.8
2017-Oct-12 06:56N 36°58' W 008°12'1 1.3
2017-Oct-12 06:30N 36°59' W 008°12'1 2.8
2017-Oct-12 06:01N 36°59' W 008°11'2 3.1
2017-Oct-12 05:30N 36°58' W 008°09'2 3.1
2017-Oct-12 04:54N 36°57' W 008°07'1 3.1
2017-Oct-12 04:31N 36°56' W 008°06'  
2017-Oct-04 00:49N 36°53' W 008°07'1 2.9
2017-Oct-04 00:30N 36°52' W 008°07'13 1.9
2017-Oct-03 17:39N 36°54' W 008°23'2 9.2
2017-Oct-03 17:28N 36°54' W 008°25'4 9.4
2017-Oct-03 17:00N 36°55' W 008°30'1 1.8
2017-Oct-03 16:30N 36°55' W 008°31'1 2.8
2017-Oct-03 16:00N 36°54' W 008°32'1 3.0
2017-Oct-03 15:30N 36°53' W 008°34'2 3.0
2017-Oct-03 14:59N 36°53' W 008°36'3 3.0
2017-Oct-03 14:00N 36°54' W 008°40'2 3.1
2017-Oct-03 13:30N 36°54' W 008°42'2 3.2
2017-Oct-03 13:00N 36°54' W 008°44'4 8.0
2017-Oct-03 12:30N 36°58' W 008°43'0 0.8
2017-Oct-03 12:00N 36°58' W 008°43'1 2.7
2017-Oct-03 11:30N 36°57' W 008°44'2 2.9
2017-Oct-03 10:56N 36°57' W 008°46'2 2.9
2017-Oct-03 10:14N 36°56' W 008°49'1 1.7
2017-Oct-03 09:26N 36°57' W 008°48'2 3.0
2017-Oct-03 08:55N 36°58' W 008°46'2 3.2
2017-Oct-03 08:25N 36°58' W 008°44'0 0.3
2017-Oct-03 08:00N 36°58' W 008°44'1 2.8
2017-Oct-03 07:30N 36°58' W 008°46'1 3.0
2017-Oct-03 07:00N 36°57' W 008°47'3 1.7
2017-Oct-03 05:04N 36°57' W 008°43'0 5.1
2017-Oct-03 05:00N 36°57' W 008°43'0 0.8
2017-Oct-03 04:26N 36°58' W 008°43'1 1.9
2017-Oct-03 04:00N 36°57' W 008°43'1 3.0
2017-Oct-03 03:30N 36°57' W 008°45'1 2.9
2017-Oct-03 03:00N 36°57' W 008°47'2 2.8
2017-Oct-03 02:25N 36°57' W 008°49'2 2.8
2017-Oct-03 01:48N 36°55' W 008°51'4 2.7
2017-Oct-03 00:10N 36°57' W 008°45'1 3.1
2017-Oct-03 00:00N 36°57' W 008°45'2 3.1
2017-Oct-02 23:27N 36°58' W 008°43'1 3.0
2017-Oct-02 23:00N 36°58' W 008°44'1 1.7
2017-Oct-02 22:30N 36°58' W 008°45'2 2.9
2017-Oct-02 22:00N 36°57' W 008°47'1 2.9
2017-Oct-02 21:30N 36°56' W 008°48'1 3.0
2017-Oct-02 21:00N 36°55' W 008°49'2 3.0
2017-Oct-02 20:30N 36°55' W 008°51'  

Dump ship's entire track history